sensor_id;sensor_type;location;lat;lon;timestamp;pressure;altitude;pressure_sealevel;temperature
24201;BMP280;2801;50.972;7.856;2024-03-08T00:00:08;97705.41;;;0.60
24201;BMP280;2801;50.972;7.856;2024-03-08T00:02:37;97700.13;;;0.60
24201;BMP280;2801;50.972;7.856;2024-03-08T00:05:06;97696.97;;;0.58
24201;BMP280;2801;50.972;7.856;2024-03-08T00:07:33;97694.00;;;0.55
24201;BMP280;2801;50.972;7.856;2024-03-08T00:10:00;97694.81;;;0.55
24201;BMP280;2801;50.972;7.856;2024-03-08T00:12:27;97687.38;;;0.47
24201;BMP280;2801;50.972;7.856;2024-03-08T00:14:54;97690.25;;;0.46
24201;BMP280;2801;50.972;7.856;2024-03-08T00:17:21;97690.00;;;0.42
24201;BMP280;2801;50.972;7.856;2024-03-08T00:19:52;97691.00;;;0.36
24201;BMP280;2801;50.972;7.856;2024-03-08T00:22:19;97688.53;;;0.25
24201;BMP280;2801;50.972;7.856;2024-03-08T00:24:46;97688.56;;;0.30
24201;BMP280;2801;50.972;7.856;2024-03-08T00:27:13;97688.25;;;0.26
24201;BMP280;2801;50.972;7.856;2024-03-08T00:29:40;97684.28;;;0.24
24201;BMP280;2801;50.972;7.856;2024-03-08T00:32:07;97690.34;;;0.19
24201;BMP280;2801;50.972;7.856;2024-03-08T00:34:37;97685.56;;;0.16
24201;BMP280;2801;50.972;7.856;2024-03-08T00:37:04;97680.28;;;0.16
24201;BMP280;2801;50.972;7.856;2024-03-08T00:39:31;97688.47;;;0.20
24201;BMP280;2801;50.972;7.856;2024-03-08T00:41:59;97681.31;;;0.15
24201;BMP280;2801;50.972;7.856;2024-03-08T00:44:26;97672.91;;;0.18
24201;BMP280;2801;50.972;7.856;2024-03-08T00:46:53;97675.03;;;0.21
24201;BMP280;2801;50.972;7.856;2024-03-08T00:49:21;97677.41;;;0.18
24201;BMP280;2801;50.972;7.856;2024-03-08T00:51:49;97673.97;;;0.17
24201;BMP280;2801;50.972;7.856;2024-03-08T00:54:16;97666.84;;;0.18
24201;BMP280;2801;50.972;7.856;2024-03-08T00:56:43;97666.09;;;0.22
24201;BMP280;2801;50.972;7.856;2024-03-08T00:59:10;97659.25;;;0.26
24201;BMP280;2801;50.972;7.856;2024-03-08T01:01:37;97658.50;;;0.31
24201;BMP280;2801;50.972;7.856;2024-03-08T01:04:04;97659.34;;;0.36
24201;BMP280;2801;50.972;7.856;2024-03-08T01:06:31;97659.41;;;0.46
24201;BMP280;2801;50.972;7.856;2024-03-08T01:08:58;97657.63;;;0.52
24201;BMP280;2801;50.972;7.856;2024-03-08T01:11:25;97647.34;;;0.55
24201;BMP280;2801;50.972;7.856;2024-03-08T01:13:54;97645.00;;;0.59
24201;BMP280;2801;50.972;7.856;2024-03-08T01:16:21;97647.09;;;0.62
24201;BMP280;2801;50.972;7.856;2024-03-08T01:18:48;97637.91;;;0.64
24201;BMP280;2801;50.972;7.856;2024-03-08T01:21:15;97627.06;;;0.66
24201;BMP280;2801;50.972;7.856;2024-03-08T01:23:42;97630.53;;;0.66
24201;BMP280;2801;50.972;7.856;2024-03-08T01:26:09;97628.16;;;0.70
24201;BMP280;2801;50.972;7.856;2024-03-08T01:28:36;97621.03;;;0.70
24201;BMP280;2801;50.972;7.856;2024-03-08T01:31:03;97623.19;;;0.78
24201;BMP280;2801;50.972;7.856;2024-03-08T01:33:31;97615.53;;;0.77
24201;BMP280;2801;50.972;7.856;2024-03-08T01:35:58;97615.03;;;0.80
24201;BMP280;2801;50.972;7.856;2024-03-08T01:38:25;97611.06;;;0.82
24201;BMP280;2801;50.972;7.856;2024-03-08T01:40:52;97609.50;;;0.86
24201;BMP280;2801;50.972;7.856;2024-03-08T01:43:21;97606.88;;;0.86
24201;BMP280;2801;50.972;7.856;2024-03-08T01:45:49;97597.91;;;0.87
24201;BMP280;2801;50.972;7.856;2024-03-08T01:48:17;97590.50;;;0.84
24201;BMP280;2801;50.972;7.856;2024-03-08T01:50:45;97596.28;;;0.81
24201;BMP280;2801;50.972;7.856;2024-03-08T01:53:13;97598.66;;;0.78
24201;BMP280;2801;50.972;7.856;2024-03-08T01:55:44;97597.84;;;0.72
24201;BMP280;2801;50.972;7.856;2024-03-08T01:58:13;97588.31;;;0.66
24201;BMP280;2801;50.972;7.856;2024-03-08T02:00:46;97588.03;;;0.63
24201;BMP280;2801;50.972;7.856;2024-03-08T02:03:18;97583.28;;;0.60
24201;BMP280;2801;50.972;7.856;2024-03-08T02:05:45;97579.06;;;0.59
24201;BMP280;2801;50.972;7.856;2024-03-08T02:08:12;97582.19;;;0.56
24201;BMP280;2801;50.972;7.856;2024-03-08T02:10:44;97574.53;;;0.54
24201;BMP280;2801;50.972;7.856;2024-03-08T02:13:11;97573.22;;;0.57
24201;BMP280;2801;50.972;7.856;2024-03-08T02:15:56;97572.66;;;0.55
24201;BMP280;2801;50.972;7.856;2024-03-08T02:18:23;97566.63;;;0.54
24201;BMP280;2801;50.972;7.856;2024-03-08T02:20:59;97565.03;;;0.53
24201;BMP280;2801;50.972;7.856;2024-03-08T02:23:27;97564.81;;;0.60
24201;BMP280;2801;50.972;7.856;2024-03-08T02:25:56;97561.34;;;0.59
24201;BMP280;2801;50.972;7.856;2024-03-08T02:28:24;97553.19;;;0.66
24201;BMP280;2801;50.972;7.856;2024-03-08T02:30:55;97560.59;;;0.64
24201;BMP280;2801;50.972;7.856;2024-03-08T02:33:26;97549.75;;;0.60
24201;BMP280;2801;50.972;7.856;2024-03-08T02:35:54;97552.69;;;0.64
24201;BMP280;2801;50.972;7.856;2024-03-08T02:38:23;97548.47;;;0.63
24201;BMP280;2801;50.972;7.856;2024-03-08T02:40:53;97545.03;;;0.62
24201;BMP280;2801;50.972;7.856;2024-03-08T02:43:21;97544.22;;;0.62
24201;BMP280;2801;50.972;7.856;2024-03-08T02:45:49;97546.09;;;0.66
24201;BMP280;2801;50.972;7.856;2024-03-08T02:48:16;97548.75;;;0.71
24201;BMP280;2801;50.972;7.856;2024-03-08T02:50:44;97552.44;;;0.75
24201;BMP280;2801;50.972;7.856;2024-03-08T02:53:13;97547.16;;;0.70
24201;BMP280;2801;50.972;7.856;2024-03-08T02:55:41;97541.38;;;0.68
24201;BMP280;2801;50.972;7.856;2024-03-08T02:58:09;97541.63;;;0.67
24201;BMP280;2801;50.972;7.856;2024-03-08T03:00:39;97537.66;;;0.69
24201;BMP280;2801;50.972;7.856;2024-03-08T03:03:08;97533.97;;;0.65
24201;BMP280;2801;50.972;7.856;2024-03-08T03:05:35;97536.34;;;0.67
24201;BMP280;2801;50.972;7.856;2024-03-08T03:08:03;97537.41;;;0.71
24201;BMP280;2801;50.972;7.856;2024-03-08T03:10:36;97529.00;;;0.74
24201;BMP280;2801;50.972;7.856;2024-03-08T03:13:04;97534.03;;;0.80
24201;BMP280;2801;50.972;7.856;2024-03-08T03:15:31;97529.81;;;0.84
24201;BMP280;2801;50.972;7.856;2024-03-08T03:18:00;97523.72;;;0.84
24201;BMP280;2801;50.972;7.856;2024-03-08T03:20:28;97526.66;;;0.87
24201;BMP280;2801;50.972;7.856;2024-03-08T03:23:08;97519.81;;;0.91
24201;BMP280;2801;50.972;7.856;2024-03-08T03:25:36;97519.00;;;0.96
24201;BMP280;2801;50.972;7.856;2024-03-08T03:28:05;97515.84;;;0.94
24201;BMP280;2801;50.972;7.856;2024-03-08T03:30:34;97509.25;;;0.91
24201;BMP280;2801;50.972;7.856;2024-03-08T03:33:02;97523.22;;;0.87
24201;BMP280;2801;50.972;7.856;2024-03-08T03:35:34;97517.94;;;0.82
24201;BMP280;2801;50.972;7.856;2024-03-08T03:38:03;97514.75;;;0.75
24201;BMP280;2801;50.972;7.856;2024-03-08T03:40:37;97515.25;;;0.72
24201;BMP280;2801;50.972;7.856;2024-03-08T03:43:04;97507.31;;;0.67
24201;BMP280;2801;50.972;7.856;2024-03-08T03:45:31;97510.72;;;0.57
24201;BMP280;2801;50.972;7.856;2024-03-08T03:48:07;97506.47;;;0.56
24201;BMP280;2801;50.972;7.856;2024-03-08T03:50:39;97509.34;;;0.50
24201;BMP280;2801;50.972;7.856;2024-03-08T03:53:07;97509.88;;;0.47
24201;BMP280;2801;50.972;7.856;2024-03-08T03:55:35;97510.66;;;0.42
24201;BMP280;2801;50.972;7.856;2024-03-08T03:58:04;97512.75;;;0.40
24201;BMP280;2801;50.972;7.856;2024-03-08T04:00:31;97502.19;;;0.35
24201;BMP280;2801;50.972;7.856;2024-03-08T04:02:58;97498.72;;;0.30
24201;BMP280;2801;50.972;7.856;2024-03-08T04:05:27;97495.78;;;0.26
24201;BMP280;2801;50.972;7.856;2024-03-08T04:07:54;97498.41;;;0.21
24201;BMP280;2801;50.972;7.856;2024-03-08T04:10:22;97493.38;;;0.15
24201;BMP280;2801;50.972;7.856;2024-03-08T04:12:49;97492.81;;;0.08
24201;BMP280;2801;50.972;7.856;2024-03-08T04:15:16;97497.28;;;0.07
24201;BMP280;2801;50.972;7.856;2024-03-08T04:17:43;97497.50;;;0.00
24201;BMP280;2801;50.972;7.856;2024-03-08T04:20:13;97494.59;;;-0.03
24201;BMP280;2801;50.972;7.856;2024-03-08T04:22:42;97491.38;;;-0.10
24201;BMP280;2801;50.972;7.856;2024-03-08T04:25:11;97487.94;;;-0.16
24201;BMP280;2801;50.972;7.856;2024-03-08T04:27:38;97494.41;;;-0.28
24201;BMP280;2801;50.972;7.856;2024-03-08T04:30:06;97489.06;;;-0.38
24201;BMP280;2801;50.972;7.856;2024-03-08T04:32:35;97492.22;;;-0.41
24201;BMP280;2801;50.972;7.856;2024-03-08T04:35:02;97490.88;;;-0.44
24201;BMP280;2801;50.972;7.856;2024-03-08T04:37:31;97494.22;;;-0.53
24201;BMP280;2801;50.972;7.856;2024-03-08T04:39:58;97488.94;;;-0.58
24201;BMP280;2801;50.972;7.856;2024-03-08T04:42:28;97483.84;;;-0.70
24201;BMP280;2801;50.972;7.856;2024-03-08T04:44:56;97489.88;;;-0.69
24201;BMP280;2801;50.972;7.856;2024-03-08T04:47:29;97482.44;;;-0.77
24201;BMP280;2801;50.972;7.856;2024-03-08T04:49:56;97480.31;;;-0.80
24201;BMP280;2801;50.972;7.856;2024-03-08T04:52:23;97478.34;;;-0.95
24201;BMP280;2801;50.972;7.856;2024-03-08T04:54:50;97475.84;;;-1.06
24201;BMP280;2801;50.972;7.856;2024-03-08T04:57:17;97478.81;;;-1.03
24201;BMP280;2801;50.972;7.856;2024-03-08T04:59:47;97479.09;;;-0.99
24201;BMP280;2801;50.972;7.856;2024-03-08T05:02:14;97472.78;;;-0.98
24201;BMP280;2801;50.972;7.856;2024-03-08T05:04:41;97466.69;;;-1.04
24201;BMP280;2801;50.972;7.856;2024-03-08T05:07:09;97466.38;;;-1.07
24201;BMP280;2801;50.972;7.856;2024-03-08T05:09:36;97464.50;;;-1.12
24201;BMP280;2801;50.972;7.856;2024-03-08T05:12:04;97471.44;;;-1.27
24201;BMP280;2801;50.972;7.856;2024-03-08T05:14:32;97465.09;;;-1.31
24201;BMP280;2801;50.972;7.856;2024-03-08T05:16:58;97465.63;;;-1.29
24201;BMP280;2801;50.972;7.856;2024-03-08T05:19:27;97464.34;;;-1.27
24201;BMP280;2801;50.972;7.856;2024-03-08T05:22:00;97464.41;;;-1.22
24201;BMP280;2801;50.972;7.856;2024-03-08T05:24:27;97468.25;;;-1.29
24201;BMP280;2801;50.972;7.856;2024-03-08T05:26:54;97469.03;;;-1.34
24201;BMP280;2801;50.972;7.856;2024-03-08T05:29:21;97464.50;;;-1.38
24201;BMP280;2801;50.972;7.856;2024-03-08T05:31:50;97464.97;;;-1.41
24201;BMP280;2801;50.972;7.856;2024-03-08T05:34:22;97463.09;;;-1.46
24201;BMP280;2801;50.972;7.856;2024-03-08T05:36:49;97467.19;;;-1.55
24201;BMP280;2801;50.972;7.856;2024-03-08T05:39:18;97461.91;;;-1.60
24201;BMP280;2801;50.972;7.856;2024-03-08T05:41:47;97461.72;;;-1.75
24201;BMP280;2801;50.972;7.856;2024-03-08T05:44:15;97454.41;;;-1.89
24201;BMP280;2801;50.972;7.856;2024-03-08T05:46:44;97463.09;;;-1.89
24201;BMP280;2801;50.972;7.856;2024-03-08T05:49:14;97466.66;;;-1.78
24201;BMP280;2801;50.972;7.856;2024-03-08T05:51:41;97459.13;;;-1.70
24201;BMP280;2801;50.972;7.856;2024-03-08T05:54:11;97459.44;;;-1.66
24201;BMP280;2801;50.972;7.856;2024-03-08T05:56:42;97458.91;;;-1.68
24201;BMP280;2801;50.972;7.856;2024-03-08T05:59:11;97457.59;;;-1.66
24201;BMP280;2801;50.972;7.856;2024-03-08T06:01:38;97454.16;;;-1.66
24201;BMP280;2801;50.972;7.856;2024-03-08T06:04:08;97462.00;;;-1.71
24201;BMP280;2801;50.972;7.856;2024-03-08T06:06:35;97447.78;;;-1.75
24201;BMP280;2801;50.972;7.856;2024-03-08T06:09:04;97446.97;;;-1.76
24201;BMP280;2801;50.972;7.856;2024-03-08T06:11:38;97440.84;;;-1.81
24201;BMP280;2801;50.972;7.856;2024-03-08T06:14:06;97446.47;;;-1.73
24201;BMP280;2801;50.972;7.856;2024-03-08T06:16:33;97444.22;;;-1.64
24201;BMP280;2801;50.972;7.856;2024-03-08T06:19:02;97446.84;;;-1.64
24201;BMP280;2801;50.972;7.856;2024-03-08T06:21:30;97444.50;;;-1.61
24201;BMP280;2801;50.972;7.856;2024-03-08T06:23:57;97441.16;;;-1.56
24201;BMP280;2801;50.972;7.856;2024-03-08T06:26:25;97439.88;;;-1.54
24201;BMP280;2801;50.972;7.856;2024-03-08T06:28:57;97441.53;;;-1.48
24201;BMP280;2801;50.972;7.856;2024-03-08T06:31:24;97444.50;;;-1.39
24201;BMP280;2801;50.972;7.856;2024-03-08T06:33:51;97439.28;;;-1.34
24201;BMP280;2801;50.972;7.856;2024-03-08T06:36:22;97436.47;;;-1.28
24201;BMP280;2801;50.972;7.856;2024-03-08T06:38:50;97437.16;;;-1.11
24201;BMP280;2801;50.972;7.856;2024-03-08T06:41:17;97437.81;;;-0.94
24201;BMP280;2801;50.972;7.856;2024-03-08T06:43:48;97434.34;;;-0.68
24201;BMP280;2801;50.972;7.856;2024-03-08T06:46:16;97429.06;;;-0.31
24201;BMP280;2801;50.972;7.856;2024-03-08T06:48:43;97434.56;;;0.09
24201;BMP280;2801;50.972;7.856;2024-03-08T06:51:10;97428.94;;;0.57
24201;BMP280;2801;50.972;7.856;2024-03-08T06:53:38;97420.03;;;0.88
24201;BMP280;2801;50.972;7.856;2024-03-08T06:56:06;97418.19;;;1.14
24201;BMP280;2801;50.972;7.856;2024-03-08T06:58:35;97414.75;;;1.43
24201;BMP280;2801;50.972;7.856;2024-03-08T07:01:02;97414.19;;;1.81
24201;BMP280;2801;50.972;7.856;2024-03-08T07:03:31;97412.00;;;2.08
24201;BMP280;2801;50.972;7.856;2024-03-08T07:05:59;97416.81;;;2.50
24201;BMP280;2801;50.972;7.856;2024-03-08T07:08:28;97415.34;;;2.77
24201;BMP280;2801;50.972;7.856;2024-03-08T07:10:56;97412.19;;;3.14
24201;BMP280;2801;50.972;7.856;2024-03-08T07:13:26;97402.16;;;3.44
24201;BMP280;2801;50.972;7.856;2024-03-08T07:15:56;97409.25;;;3.77
24201;BMP280;2801;50.972;7.856;2024-03-08T07:18:26;97403.00;;;4.16
24201;BMP280;2801;50.972;7.856;2024-03-08T07:20:57;97402.69;;;4.41
24201;BMP280;2801;50.972;7.856;2024-03-08T07:23:24;97396.53;;;4.45
24201;BMP280;2801;50.972;7.856;2024-03-08T07:26:10;97394.03;;;4.72
24201;BMP280;2801;50.972;7.856;2024-03-08T07:28:36;97393.47;;;4.94
24201;BMP280;2801;50.972;7.856;2024-03-08T07:31:03;97392.22;;;5.23
24201;BMP280;2801;50.972;7.856;2024-03-08T07:33:44;97383.25;;;5.65
24201;BMP280;2801;50.972;7.856;2024-03-08T07:36:11;97382.72;;;5.81
24201;BMP280;2801;50.972;7.856;2024-03-08T07:38:39;97370.59;;;5.75
24201;BMP280;2801;50.972;7.856;2024-03-08T07:41:06;97375.09;;;5.61
24201;BMP280;2801;50.972;7.856;2024-03-08T07:43:33;97371.66;;;5.74
24201;BMP280;2801;50.972;7.856;2024-03-08T07:46:00;97362.16;;;6.00
24201;BMP280;2801;50.972;7.856;2024-03-08T07:48:27;97356.72;;;6.32
24201;BMP280;2801;50.972;7.856;2024-03-08T07:50:54;97362.78;;;6.60
24201;BMP280;2801;50.972;7.856;2024-03-08T07:53:22;97354.94;;;6.28
24201;BMP280;2801;50.972;7.856;2024-03-08T07:55:51;97354.84;;;6.06
24201;BMP280;2801;50.972;7.856;2024-03-08T07:58:18;97357.41;;;5.97
24201;BMP280;2801;50.972;7.856;2024-03-08T08:00:45;97355.84;;;5.83
24201;BMP280;2801;50.972;7.856;2024-03-08T08:03:13;97354.47;;;5.99
24201;BMP280;2801;50.972;7.856;2024-03-08T08:05:40;97348.03;;;6.40
24201;BMP280;2801;50.972;7.856;2024-03-08T08:08:10;97352.38;;;6.36
24201;BMP280;2801;50.972;7.856;2024-03-08T08:10:38;97351.00;;;6.25
24201;BMP280;2801;50.972;7.856;2024-03-08T08:13:05;97345.19;;;6.23
24201;BMP280;2801;50.972;7.856;2024-03-08T08:15:32;97339.38;;;6.21
24201;BMP280;2801;50.972;7.856;2024-03-08T08:18:02;97340.25;;;6.30
24201;BMP280;2801;50.972;7.856;2024-03-08T08:20:33;97329.31;;;6.18
24201;BMP280;2801;50.972;7.856;2024-03-08T08:23:00;97334.47;;;6.01
24201;BMP280;2801;50.972;7.856;2024-03-08T08:25:26;97332.41;;;5.85
24201;BMP280;2801;50.972;7.856;2024-03-08T08:27:53;97332.41;;;6.12
24201;BMP280;2801;50.972;7.856;2024-03-08T08:30:20;97322.41;;;6.31
24201;BMP280;2801;50.972;7.856;2024-03-08T08:32:47;97319.72;;;6.44
24201;BMP280;2801;50.972;7.856;2024-03-08T08:35:18;97320.31;;;6.77
24201;BMP280;2801;50.972;7.856;2024-03-08T08:37:46;97322.75;;;6.87
24201;BMP280;2801;50.972;7.856;2024-03-08T08:40:14;97321.41;;;6.76
24201;BMP280;2801;50.972;7.856;2024-03-08T08:42:46;97323.69;;;6.69
24201;BMP280;2801;50.972;7.856;2024-03-08T08:45:16;97310.91;;;6.79
24201;BMP280;2801;50.972;7.856;2024-03-08T08:47:50;97319.00;;;6.88
24201;BMP280;2801;50.972;7.856;2024-03-08T08:50:17;97317.59;;;6.90
24201;BMP280;2801;50.972;7.856;2024-03-08T08:52:51;97306.09;;;7.03
24201;BMP280;2801;50.972;7.856;2024-03-08T08:55:18;97300.88;;;7.51
24201;BMP280;2801;50.972;7.856;2024-03-08T08:57:48;97291.84;;;8.17
24201;BMP280;2801;50.972;7.856;2024-03-08T09:00:16;97291.63;;;8.69
24201;BMP280;2801;50.972;7.856;2024-03-08T09:02:43;97276.78;;;9.23
24201;BMP280;2801;50.972;7.856;2024-03-08T09:05:11;97280.50;;;9.39
24201;BMP280;2801;50.972;7.856;2024-03-08T09:07:39;97271.25;;;9.36
24201;BMP280;2801;50.972;7.856;2024-03-08T09:10:07;97262.28;;;9.32
24201;BMP280;2801;50.972;7.856;2024-03-08T09:12:39;97262.53;;;9.48
24201;BMP280;2801;50.972;7.856;2024-03-08T09:15:07;97258.38;;;9.67
24201;BMP280;2801;50.972;7.856;2024-03-08T09:17:41;97259.06;;;10.22
24201;BMP280;2801;50.972;7.856;2024-03-08T09:20:10;97249.97;;;10.35
24201;BMP280;2801;50.972;7.856;2024-03-08T09:22:38;97243.75;;;10.43
24201;BMP280;2801;50.972;7.856;2024-03-08T09:25:05;97243.44;;;10.45
24201;BMP280;2801;50.972;7.856;2024-03-08T09:27:34;97239.06;;;10.61
24201;BMP280;2801;50.972;7.856;2024-03-08T09:30:06;97233.06;;;10.96
24201;BMP280;2801;50.972;7.856;2024-03-08T09:32:49;97234.59;;;11.18
24201;BMP280;2801;50.972;7.856;2024-03-08T09:35:19;97229.69;;;11.44
24201;BMP280;2801;50.972;7.856;2024-03-08T09:37:46;97224.25;;;11.53
24201;BMP280;2801;50.972;7.856;2024-03-08T09:40:19;97217.66;;;11.62
24201;BMP280;2801;50.972;7.856;2024-03-08T09:42:48;97222.72;;;11.76
24201;BMP280;2801;50.972;7.856;2024-03-08T09:45:17;97218.34;;;11.83
24201;BMP280;2801;50.972;7.856;2024-03-08T09:47:45;97212.84;;;12.04
24201;BMP280;2801;50.972;7.856;2024-03-08T09:50:12;97202.69;;;11.97
24201;BMP280;2801;50.972;7.856;2024-03-08T09:52:43;97192.38;;;11.99
24201;BMP280;2801;50.972;7.856;2024-03-08T09:55:13;97201.75;;;11.57
24201;BMP280;2801;50.972;7.856;2024-03-08T09:57:42;97182.72;;;10.81
24201;BMP280;2801;50.972;7.856;2024-03-08T10:00:30;97196.44;;;10.47
24201;BMP280;2801;50.972;7.856;2024-03-08T10:03:02;97178.66;;;10.63
24201;BMP280;2801;50.972;7.856;2024-03-08T10:05:31;97182.03;;;10.72
24201;BMP280;2801;50.972;7.856;2024-03-08T10:08:00;97176.25;;;10.50
24201;BMP280;2801;50.972;7.856;2024-03-08T10:10:27;97183.25;;;10.22
24201;BMP280;2801;50.972;7.856;2024-03-08T10:12:55;97176.94;;;9.97
24201;BMP280;2801;50.972;7.856;2024-03-08T10:15:23;97169.22;;;9.75
24201;BMP280;2801;50.972;7.856;2024-03-08T10:17:51;97171.88;;;9.75
24201;BMP280;2801;50.972;7.856;2024-03-08T10:20:20;97182.47;;;9.72
24201;BMP280;2801;50.972;7.856;2024-03-08T10:22:47;97174.34;;;9.60
24201;BMP280;2801;50.972;7.856;2024-03-08T10:25:33;97170.13;;;9.79
24201;BMP280;2801;50.972;7.856;2024-03-08T10:28:04;97168.38;;;9.83
24201;BMP280;2801;50.972;7.856;2024-03-08T10:30:31;97179.28;;;9.78
24201;BMP280;2801;50.972;7.856;2024-03-08T10:32:59;97170.53;;;9.69
24201;BMP280;2801;50.972;7.856;2024-03-08T10:35:26;97153.63;;;9.77
24201;BMP280;2801;50.972;7.856;2024-03-08T10:37:57;97159.81;;;9.69
24201;BMP280;2801;50.972;7.856;2024-03-08T10:40:30;97182.31;;;9.68
24201;BMP280;2801;50.972;7.856;2024-03-08T10:42:59;97162.72;;;9.56
24201;BMP280;2801;50.972;7.856;2024-03-08T10:45:38;97157.81;;;9.58
24201;BMP280;2801;50.972;7.856;2024-03-08T10:48:30;97153.94;;;9.47
24201;BMP280;2801;50.972;7.856;2024-03-08T10:51:06;97147.06;;;9.66
24201;BMP280;2801;50.972;7.856;2024-03-08T10:53:37;97149.19;;;10.02
24201;BMP280;2801;50.972;7.856;2024-03-08T10:56:08;97136.47;;;10.19
24201;BMP280;2801;50.972;7.856;2024-03-08T10:58:38;97137.06;;;10.25
24201;BMP280;2801;50.972;7.856;2024-03-08T11:01:05;97123.09;;;10.19
24201;BMP280;2801;50.972;7.856;2024-03-08T11:03:46;97135.91;;;10.14
24201;BMP280;2801;50.972;7.856;2024-03-08T11:09:36;97120.66;;;10.26
24201;BMP280;2801;50.972;7.856;2024-03-08T11:12:27;97115.25;;;10.14
24201;BMP280;2801;50.972;7.856;2024-03-08T11:15:01;97130.44;;;10.10
24201;BMP280;2801;50.972;7.856;2024-03-08T11:19:59;97105.13;;;9.79
24201;BMP280;2801;50.972;7.856;2024-03-08T11:22:33;97106.16;;;9.86
24201;BMP280;2801;50.972;7.856;2024-03-08T11:25:05;97112.69;;;9.97
24201;BMP280;2801;50.972;7.856;2024-03-08T11:27:37;97089.38;;;9.98
24201;BMP280;2801;50.972;7.856;2024-03-08T11:30:08;97099.81;;;9.91
24201;BMP280;2801;50.972;7.856;2024-03-08T11:32:45;97101.59;;;9.87
24201;BMP280;2801;50.972;7.856;2024-03-08T11:35:21;97091.13;;;9.94
24201;BMP280;2801;50.972;7.856;2024-03-08T11:37:50;97096.16;;;9.95
24201;BMP280;2801;50.972;7.856;2024-03-08T11:40:19;97082.38;;;9.85
24201;BMP280;2801;50.972;7.856;2024-03-08T11:42:56;97079.31;;;9.74
24201;BMP280;2801;50.972;7.856;2024-03-08T11:45:23;97080.13;;;9.75
24201;BMP280;2801;50.972;7.856;2024-03-08T11:47:51;97080.56;;;9.77
24201;BMP280;2801;50.972;7.856;2024-03-08T11:50:24;97074.34;;;9.64
24201;BMP280;2801;50.972;7.856;2024-03-08T11:52:51;97074.59;;;9.71
24201;BMP280;2801;50.972;7.856;2024-03-08T11:55:18;97064.06;;;9.75
24201;BMP280;2801;50.972;7.856;2024-03-08T11:57:47;97073.50;;;9.72
24201;BMP280;2801;50.972;7.856;2024-03-08T12:00:17;97061.16;;;9.59
24201;BMP280;2801;50.972;7.856;2024-03-08T12:03:07;97062.94;;;9.55
24201;BMP280;2801;50.972;7.856;2024-03-08T12:05:36;97049.50;;;9.64
24201;BMP280;2801;50.972;7.856;2024-03-08T12:08:03;97050.25;;;9.64
24201;BMP280;2801;50.972;7.856;2024-03-08T12:10:34;97046.03;;;9.63
24201;BMP280;2801;50.972;7.856;2024-03-08T12:13:02;97042.97;;;9.53
24201;BMP280;2801;50.972;7.856;2024-03-08T12:15:39;97041.84;;;9.54
24201;BMP280;2801;50.972;7.856;2024-03-08T12:18:06;97039.69;;;9.47
24201;BMP280;2801;50.972;7.856;2024-03-08T12:20:34;97043.47;;;9.46
24201;BMP280;2801;50.972;7.856;2024-03-08T12:23:01;97033.59;;;9.38
24201;BMP280;2801;50.972;7.856;2024-03-08T12:25:33;97018.22;;;9.56
24201;BMP280;2801;50.972;7.856;2024-03-08T12:28:11;97016.00;;;9.58
24201;BMP280;2801;50.972;7.856;2024-03-08T12:30:48;97012.78;;;9.64
24201;BMP280;2801;50.972;7.856;2024-03-08T12:33:15;97010.84;;;9.73
24201;BMP280;2801;50.972;7.856;2024-03-08T12:35:51;97017.16;;;9.89
24201;BMP280;2801;50.972;7.856;2024-03-08T12:38:24;97019.56;;;9.82
24201;BMP280;2801;50.972;7.856;2024-03-08T12:41:00;97001.16;;;9.81
24201;BMP280;2801;50.972;7.856;2024-03-08T12:43:29;97002.72;;;9.82
24201;BMP280;2801;50.972;7.856;2024-03-08T12:45:58;96990.19;;;9.74
24201;BMP280;2801;50.972;7.856;2024-03-08T12:48:26;96992.41;;;9.92
24201;BMP280;2801;50.972;7.856;2024-03-08T12:50:53;96996.88;;;10.00
24201;BMP280;2801;50.972;7.856;2024-03-08T12:53:20;96992.72;;;10.11
24201;BMP280;2801;50.972;7.856;2024-03-08T12:55:49;96987.78;;;10.13
24201;BMP280;2801;50.972;7.856;2024-03-08T12:58:17;96985.03;;;10.22
24201;BMP280;2801;50.972;7.856;2024-03-08T13:00:44;96978.78;;;10.18
24201;BMP280;2801;50.972;7.856;2024-03-08T13:03:11;96980.00;;;10.20
24201;BMP280;2801;50.972;7.856;2024-03-08T13:05:38;96986.69;;;10.14
24201;BMP280;2801;50.972;7.856;2024-03-08T13:08:10;96973.19;;;10.23
24201;BMP280;2801;50.972;7.856;2024-03-08T13:10:40;96964.59;;;10.17
24201;BMP280;2801;50.972;7.856;2024-03-08T13:13:11;96965.63;;;10.25
24201;BMP280;2801;50.972;7.856;2024-03-08T13:15:44;96971.56;;;10.30
24201;BMP280;2801;50.972;7.856;2024-03-08T13:18:12;96953.38;;;10.36
24201;BMP280;2801;50.972;7.856;2024-03-08T13:20:39;96954.50;;;10.47
24201;BMP280;2801;50.972;7.856;2024-03-08T13:23:14;96949.25;;;10.50
24201;BMP280;2801;50.972;7.856;2024-03-08T13:25:41;96964.09;;;10.48
24201;BMP280;2801;50.972;7.856;2024-03-08T13:28:08;96952.47;;;10.44
24201;BMP280;2801;50.972;7.856;2024-03-08T13:30:36;96960.75;;;10.39
24201;BMP280;2801;50.972;7.856;2024-03-08T13:33:03;96954.34;;;10.31
24201;BMP280;2801;50.972;7.856;2024-03-08T13:35:32;96951.91;;;10.38
24201;BMP280;2801;50.972;7.856;2024-03-08T13:37:59;96938.94;;;10.40
24201;BMP280;2801;50.972;7.856;2024-03-08T13:40:29;96947.69;;;10.37
24201;BMP280;2801;50.972;7.856;2024-03-08T13:42:57;96933.16;;;10.38
24201;BMP280;2801;50.972;7.856;2024-03-08T13:45:27;96940.78;;;10.48
24201;BMP280;2801;50.972;7.856;2024-03-08T13:47:55;96935.75;;;10.35
24201;BMP280;2801;50.972;7.856;2024-03-08T13:50:22;96924.44;;;10.29
24201;BMP280;2801;50.972;7.856;2024-03-08T13:52:51;96930.25;;;10.31
24201;BMP280;2801;50.972;7.856;2024-03-08T13:55:21;96907.69;;;10.32
24201;BMP280;2801;50.972;7.856;2024-03-08T13:57:49;96912.94;;;10.41
24201;BMP280;2801;50.972;7.856;2024-03-08T14:00:18;96901.56;;;10.44
24201;BMP280;2801;50.972;7.856;2024-03-08T14:02:49;96901.22;;;10.57
24201;BMP280;2801;50.972;7.856;2024-03-08T14:05:16;96894.75;;;10.58
24201;BMP280;2801;50.972;7.856;2024-03-08T14:07:46;96881.13;;;10.63
24201;BMP280;2801;50.972;7.856;2024-03-08T14:10:16;96889.50;;;10.62
24201;BMP280;2801;50.972;7.856;2024-03-08T14:12:48;96883.34;;;10.73
24201;BMP280;2801;50.972;7.856;2024-03-08T14:15:17;96879.56;;;10.62
24201;BMP280;2801;50.972;7.856;2024-03-08T14:17:44;96866.28;;;10.54
24201;BMP280;2801;50.972;7.856;2024-03-08T14:20:14;96862.25;;;10.60
24201;BMP280;2801;50.972;7.856;2024-03-08T14:22:41;96848.19;;;10.63
24201;BMP280;2801;50.972;7.856;2024-03-08T14:25:08;96839.81;;;10.64
24201;BMP280;2801;50.972;7.856;2024-03-08T14:27:46;96843.47;;;10.72
24201;BMP280;2801;50.972;7.856;2024-03-08T14:30:13;96845.59;;;10.66
24201;BMP280;2801;50.972;7.856;2024-03-08T14:32:44;96831.41;;;10.78
24201;BMP280;2801;50.972;7.856;2024-03-08T14:35:14;96838.44;;;10.82
24201;BMP280;2801;50.972;7.856;2024-03-08T14:37:41;96836.19;;;10.84
24201;BMP280;2801;50.972;7.856;2024-03-08T14:40:10;96836.84;;;10.81
24201;BMP280;2801;50.972;7.856;2024-03-08T14:42:37;96826.19;;;10.97
24201;BMP280;2801;50.972;7.856;2024-03-08T14:45:09;96820.63;;;10.90